Time;durP1;ratioP1;P1;durP2;ratioP2;P2;SDS_P1;SDS_P2;PMS_P1;PMS_P2;Temp;Humidity;BMP_temperature;BMP_pressure;BME280_temperature;BME280_humidity;BME280_pressure;Samples;Min_cycle;Max_cycle;Signal;HPM_P1;HPM_P2
2022/03/31 00:01:31;;;;;;;35.60;21.50;;;8.10;99.90;;;;;;4955219;28;20194;-72
2022/03/31 00:03:57;;;;;;;34.63;20.90;;;8.10;99.90;;;;;;4955878;28;20183;-72
2022/03/31 00:06:22;;;;;;;34.83;21.30;;;8.10;99.90;;;;;;4955377;29;20193;-72
2022/03/31 00:08:48;;;;;;;37.97;21.23;;;8.00;99.90;;;;;;4955758;28;20260;-71
2022/03/31 00:11:13;;;;;;;31.33;21.40;;;8.00;99.90;;;;;;4954970;29;20208;-71
2022/03/31 00:13:41;;;;;;;33.13;20.27;;;7.90;99.90;;;;;;4955595;28;20636;-72
2022/03/31 00:16:06;;;;;;;38.93;22.50;;;8.00;99.90;;;;;;4955414;28;20170;-72
2022/03/31 00:18:33;;;;;;;36.07;21.73;;;8.10;99.90;;;;;;4955370;29;20507;-72
2022/03/31 00:21:00;;;;;;;37.83;22.70;;;8.10;99.90;;;;;;4955264;28;20630;-71
2022/03/31 00:23:25;;;;;;;36.20;20.63;;;8.10;99.90;;;;;;4955164;28;20982;-72
2022/03/31 00:25:51;;;;;;;33.10;20.67;;;8.10;99.90;;;;;;4955441;29;20509;-72
2022/03/31 00:28:17;;;;;;;34.27;22.53;;;8.20;99.90;;;;;;4955002;28;20413;-72
2022/03/31 00:30:42;;;;;;;31.20;20.37;;;8.10;99.90;;;;;;4955022;28;20231;-72
2022/03/31 00:33:08;;;;;;;33.50;20.23;;;8.10;99.90;;;;;;4953706;29;20181;-72
2022/03/31 00:35:34;;;;;;;31.57;19.27;;;8.10;99.90;;;;;;4955410;28;20186;-72
2022/03/31 00:38:00;;;;;;;37.43;20.67;;;8.10;99.90;;;;;;4954929;29;20417;-72
2022/03/31 00:40:26;;;;;;;34.23;20.57;;;8.10;99.90;;;;;;4954862;28;20188;-72
2022/03/31 00:42:55;;;;;;;31.10;19.90;;;8.10;99.90;;;;;;4954826;28;20213;-72
2022/03/31 00:45:26;;;;;;;35.47;22.00;;;8.20;99.90;;;;;;4954967;28;20546;-72
2022/03/31 00:47:54;;;;;;;33.20;21.27;;;8.10;99.90;;;;;;4954775;28;20414;-72
2022/03/31 00:50:22;;;;;;;33.77;20.03;;;8.10;99.90;;;;;;4954772;28;20426;-72
2022/03/31 00:52:47;;;;;;;31.90;20.63;;;8.10;99.90;;;;;;4954573;28;20437;-72
2022/03/31 00:55:14;;;;;;;35.00;20.40;;;8.10;99.90;;;;;;4954680;28;20982;-72
2022/03/31 00:57:42;;;;;;;34.00;19.37;;;8.10;99.90;;;;;;4954736;28;20526;-72
2022/03/31 02:30:51;;;;;;;20.80;14.13;;;7.10;99.90;;;;;;6042312;23;21370;-73
2022/03/31 02:33:17;;;;;;;22.13;14.60;;;7.10;99.90;;;;;;4977858;28;20437;-73
2022/03/31 02:35:43;;;;;;;25.10;15.20;;;7.00;99.90;;;;;;4991776;28;20429;-73
2022/03/31 02:38:09;;;;;;;19.90;14.37;;;6.90;99.90;;;;;;4988163;28;20786;-73
2022/03/31 02:40:34;;;;;;;20.70;14.90;;;6.90;99.90;;;;;;4959102;28;20184;-72
2022/03/31 02:43:00;;;;;;;21.33;14.43;;;6.90;99.90;;;;;;4953035;29;20180;-73
2022/03/31 02:45:25;;;;;;;25.83;14.83;;;6.80;99.90;;;;;;4953481;29;20185;-71
2022/03/31 02:47:51;;;;;;;19.53;14.37;;;6.80;99.90;;;;;;4953123;29;20227;-73
2022/03/31 02:50:17;;;;;;;22.93;16.00;;;6.80;99.90;;;;;;4952310;29;20189;-74
2022/03/31 02:55:29;;;;;;;22.50;15.80;;;6.70;99.90;;;;;;4953318;29;20460;-73
2022/03/31 02:58:02;;;;;;;22.83;15.27;;;6.70;99.90;;;;;;4953249;28;20418;-73
2022/03/31 03:00:30;;;;;;;21.23;14.80;;;6.70;99.90;;;;;;4953102;28;20253;-71
2022/03/31 03:02:56;;;;;;;20.17;14.60;;;6.70;99.90;;;;;;4953129;28;20439;-73
2022/03/31 03:05:22;;;;;;;24.67;16.93;;;6.70;99.90;;;;;;4953111;28;20819;-72
2022/03/31 03:07:48;;;;;;;25.57;15.83;;;6.70;99.90;;;;;;4953148;29;20424;-73
2022/03/31 03:10:14;;;;;;;21.67;15.13;;;6.60;99.90;;;;;;4952761;29;20930;-73
2022/03/31 03:12:44;;;;;;;23.83;15.20;;;6.60;99.90;;;;;;4952951;28;20441;-74
2022/03/31 03:15:10;;;;;;;25.17;16.30;;;6.60;99.90;;;;;;4952963;28;21018;-72
2022/03/31 03:17:41;;;;;;;23.03;16.30;;;6.60;99.90;;;;;;4951997;29;20467;-73
2022/03/31 03:20:08;;;;;;;21.90;16.03;;;6.50;99.90;;;;;;4952850;28;20440;-73
2022/03/31 03:22:33;;;;;;;29.73;17.27;;;6.50;99.90;;;;;;4952609;28;20882;-70
2022/03/31 03:24:59;;;;;;;27.00;15.90;;;6.40;99.90;;;;;;4952883;29;20507;-73
2022/03/31 03:27:26;;;;;;;27.20;17.57;;;6.30;99.90;;;;;;4952936;28;20192;-73
2022/03/31 03:29:51;;;;;;;27.27;16.93;;;6.30;99.90;;;;;;4952886;28;20179;-73
2022/03/31 03:32:17;;;;;;;27.33;18.60;;;6.30;99.90;;;;;;4954473;28;20449;-73
2022/03/31 03:34:43;;;;;;;25.90;16.90;;;6.20;99.90;;;;;;4956225;28;20205;-69
2022/03/31 03:37:08;;;;;;;22.47;16.80;;;6.10;99.90;;;;;;4956083;29;20420;-73
2022/03/31 03:39:34;;;;;;;26.00;18.23;;;6.10;99.90;;;;;;4956458;28;20171;-74
2022/03/31 03:42:01;;;;;;;23.13;16.47;;;6.10;99.90;;;;;;4955614;28;20193;-73
2022/03/31 03:44:27;;;;;;;28.00;17.33;;;6.10;99.90;;;;;;4956270;28;20414;-74
2022/03/31 03:46:53;;;;;;;25.97;17.37;;;6.10;99.90;;;;;;4956068;29;20416;-74
2022/03/31 03:49:19;;;;;;;23.23;16.40;;;6.20;99.90;;;;;;4956046;29;20195;-72
2022/03/31 03:51:45;;;;;;;26.67;17.00;;;6.20;99.90;;;;;;4954520;28;20198;-73
2022/03/31 03:54:11;;;;;;;27.87;18.47;;;6.10;99.90;;;;;;4955871;29;21018;-73
2022/03/31 03:56:37;;;;;;;22.73;16.23;;;6.10;99.90;;;;;;4955801;28;20170;-70
2022/03/31 03:59:04;;;;;;;25.00;17.40;;;6.10;99.90;;;;;;4955860;28;20418;-73
2022/03/31 04:01:29;;;;;;;29.00;17.97;;;6.10;99.90;;;;;;4955532;28;20184;-73
2022/03/31 04:03:55;;;;;;;24.67;17.37;;;6.10;99.90;;;;;;4955618;29;20964;-73
2022/03/31 04:06:20;;;;;;;25.97;17.97;;;6.10;99.90;;;;;;4955693;29;20189;-73
2022/03/31 04:08:46;;;;;;;26.83;17.47;;;6.00;99.90;;;;;;4955232;28;20222;-70
2022/03/31 04:11:11;;;;;;;24.13;18.20;;;6.00;99.90;;;;;;4955300;28;20737;-73
2022/03/31 04:13:37;;;;;;;25.13;16.40;;;6.00;99.90;;;;;;4955604;29;20211;-73
2022/03/31 04:16:03;;;;;;;23.87;17.20;;;6.00;99.90;;;;;;4955688;29;20178;-73
2022/03/31 04:18:29;;;;;;;22.30;16.77;;;6.00;99.90;;;;;;4955494;28;20259;-73
2022/03/31 04:20:55;;;;;;;27.70;17.70;;;6.00;99.90;;;;;;4955262;28;20531;-72
2022/03/31 04:23:21;;;;;;;23.17;16.70;;;6.00;99.90;;;;;;4954101;29;20239;-73
2022/03/31 04:25:47;;;;;;;23.40;16.60;;;5.90;99.90;;;;;;4955712;29;20869;-73
2022/03/31 04:28:13;;;;;;;29.40;18.53;;;5.90;99.90;;;;;;4955326;28;20176;-73
2022/03/31 04:30:38;;;;;;;25.00;17.30;;;5.90;99.90;;;;;;4955323;28;20412;-72
2022/03/31 04:33:04;;;;;;;22.20;16.30;;;5.90;99.90;;;;;;4955113;28;20448;-69
2022/03/31 04:35:30;;;;;;;27.20;17.23;;;5.90;99.90;;;;;;4955452;29;20700;-74
2022/03/31 04:37:55;;;;;;;31.63;17.87;;;5.90;99.90;;;;;;4955228;29;20572;-73
2022/03/31 04:40:21;;;;;;;26.87;18.13;;;5.90;99.90;;;;;;4955062;28;20228;-73
2022/03/31 04:42:46;;;;;;;30.13;16.80;;;5.90;99.90;;;;;;4954061;28;20197;-72
2022/03/31 04:45:12;;;;;;;23.23;16.13;;;5.90;99.90;;;;;;4953503;29;20181;-73
2022/03/31 04:47:38;;;;;;;25.07;17.17;;;5.90;99.90;;;;;;4955254;29;20184;-72
2022/03/31 04:50:04;;;;;;;28.30;18.53;;;5.80;99.90;;;;;;4954746;29;20185;-73
2022/03/31 04:52:29;;;;;;;25.70;16.97;;;5.90;99.90;;;;;;4954663;28;20441;-73
2022/03/31 04:54:55;;;;;;;23.10;16.83;;;5.80;99.90;;;;;;4954773;28;20467;-72
2022/03/31 04:57:23;;;;;;;21.23;15.83;;;5.80;99.90;;;;;;4954627;29;20178;-72
2022/03/31 04:59:49;;;;;;;22.07;16.07;;;5.90;99.90;;;;;;4954708;28;20724;-74
2022/03/31 05:02:15;;;;;;;25.27;17.10;;;5.90;99.90;;;;;;4954253;28;20437;-74
2022/03/31 05:04:41;;;;;;;23.13;16.70;;;6.00;99.90;;;;;;4954762;28;20240;-73
2022/03/31 05:07:06;;;;;;;23.87;16.60;;;6.00;99.90;;;;;;4954480;29;20596;-74
2022/03/31 05:09:32;;;;;;;24.50;16.40;;;6.00;99.90;;;;;;4954692;29;20957;-74
2022/03/31 05:11:57;;;;;;;21.47;16.10;;;6.00;99.90;;;;;;4954165;28;20201;-75
2022/03/31 05:14:23;;;;;;;30.33;17.50;;;6.00;99.90;;;;;;4953800;28;20697;-74
2022/03/31 05:16:49;;;;;;;27.40;16.53;;;6.00;99.90;;;;;;4957755;28;20602;-74
2022/03/31 05:19:15;;;;;;;26.67;16.17;;;6.00;99.90;;;;;;4973598;28;20204;-74
2022/03/31 05:21:40;;;;;;;31.73;16.60;;;6.00;99.90;;;;;;4973320;28;21025;-75
2022/03/31 05:24:06;;;;;;;24.27;16.07;;;6.00;99.90;;;;;;4973556;28;20186;-74
2022/03/31 05:26:32;;;;;;;22.70;15.77;;;5.90;99.90;;;;;;4973489;28;20207;-74
2022/03/31 05:28:57;;;;;;;25.97;16.23;;;5.90;99.90;;;;;;4973508;28;20180;-74
2022/03/31 05:31:23;;;;;;;22.77;15.97;;;5.90;99.90;;;;;;4973008;28;20225;-74
2022/03/31 05:33:49;;;;;;;26.53;16.80;;;5.80;99.90;;;;;;4973458;28;20285;-74
2022/03/31 05:36:14;;;;;;;23.70;16.77;;;5.80;99.90;;;;;;4973255;28;20306;-74
2022/03/31 05:38:40;;;;;;;23.63;15.80;;;5.80;99.90;;;;;;4973331;28;20665;-74
2022/03/31 05:41:05;;;;;;;27.30;16.90;;;5.80;99.90;;;;;;4972986;28;20203;-74
2022/03/31 05:43:31;;;;;;;23.13;16.17;;;5.80;99.90;;;;;;4973168;28;20181;-74
2022/03/31 05:45:57;;;;;;;22.97;16.80;;;5.90;99.90;;;;;;4973351;28;20541;-75
2022/03/31 05:48:22;;;;;;;21.43;15.37;;;5.90;99.90;;;;;;4971658;28;20194;-75
2022/03/31 05:50:48;;;;;;;21.83;15.53;;;6.00;99.90;;;;;;4972917;28;20793;-74
2022/03/31 05:53:13;;;;;;;27.20;14.93;;;5.90;99.90;;;;;;4971645;28;20190;-74
2022/03/31 05:55:40;;;;;;;28.90;16.77;;;6.00;99.90;;;;;;4972517;28;20243;-75
2022/03/31 05:58:07;;;;;;;23.57;15.70;;;5.90;99.90;;;;;;4972696;28;20179;-74
2022/03/31 06:00:32;;;;;;;21.20;15.40;;;6.00;99.90;;;;;;4946487;28;20432;-74
2022/03/31 06:02:58;;;;;;;22.40;15.50;;;6.00;99.90;;;;;;4944426;29;20500;-74
2022/03/31 06:05:24;;;;;;;26.03;16.00;;;5.90;99.90;;;;;;4943054;29;20184;-74
2022/03/31 06:07:52;;;;;;;29.17;16.53;;;5.90;99.90;;;;;;4943171;28;20710;-74
2022/03/31 06:10:18;;;;;;;24.03;14.50;;;5.90;99.90;;;;;;4944159;29;20223;-73
2022/03/31 06:12:43;;;;;;;22.03;16.30;;;5.90;99.90;;;;;;4942885;29;20496;-74
2022/03/31 06:15:09;;;;;;;25.50;16.20;;;6.00;99.90;;;;;;4950479;29;21031;-74
2022/03/31 06:17:40;;;;;;;26.30;17.87;;;6.00;99.90;;;;;;4953501;29;20319;-74
2022/03/31 06:20:07;;;;;;;25.40;14.83;;;6.00;99.90;;;;;;4953210;28;20470;-74
2022/03/31 06:22:33;;;;;;;24.70;15.50;;;6.00;99.90;;;;;;4953206;28;20443;-75
2022/03/31 06:24:59;;;;;;;24.63;16.47;;;6.00;99.90;;;;;;4952129;28;20439;-74
2022/03/31 06:27:24;;;;;;;23.80;15.63;;;5.90;99.90;;;;;;4953050;29;20183;-73
2022/03/31 06:29:51;;;;;;;22.67;16.63;;;6.00;99.90;;;;;;4953399;29;20542;-74
2022/03/31 06:32:17;;;;;;;23.63;15.50;;;6.00;99.90;;;;;;4952707;28;20243;-74
2022/03/31 06:34:42;;;;;;;28.10;17.60;;;6.00;99.90;;;;;;4953390;29;20492;-73
2022/03/31 06:37:08;;;;;;;28.63;17.00;;;6.00;99.90;;;;;;4953103;28;20996;-74
2022/03/31 06:39:34;;;;;;;28.87;17.30;;;6.10;99.90;;;;;;4953384;28;20255;-75
2022/03/31 06:42:00;;;;;;;27.37;17.17;;;6.10;99.90;;;;;;4952663;28;20523;-75
2022/03/31 06:44:26;;;;;;;26.47;15.83;;;6.10;99.90;;;;;;4952012;29;20177;-74
2022/03/31 06:46:52;;;;;;;26.30;17.70;;;6.20;99.90;;;;;;4953122;29;20419;-74
2022/03/31 06:49:18;;;;;;;25.43;16.47;;;6.20;99.90;;;;;;4951781;29;20436;-75
2022/03/31 06:51:44;;;;;;;23.97;16.37;;;6.20;99.90;;;;;;4953000;28;20196;-74
2022/03/31 06:54:10;;;;;;;25.27;16.27;;;6.20;99.90;;;;;;4952801;29;20511;-74
2022/03/31 06:56:36;;;;;;;23.33;16.37;;;6.20;99.90;;;;;;4951894;29;20264;-75
2022/03/31 06:59:02;;;;;;;28.30;16.90;;;6.30;99.90;;;;;;4952805;29;20181;-75
2022/03/31 07:01:27;;;;;;;20.70;15.60;;;6.30;99.90;;;;;;4952971;28;20499;-74
2022/03/31 07:03:53;;;;;;;23.03;15.73;;;6.20;99.90;;;;;;4952931;28;20420;-74
2022/03/31 07:06:19;;;;;;;22.80;16.43;;;6.30;99.90;;;;;;4953723;28;20328;-74
2022/03/31 07:08:44;;;;;;;29.23;18.23;;;6.30;99.90;;;;;;4956814;28;20181;-75
2022/03/31 07:11:10;;;;;;;29.73;16.50;;;6.40;99.90;;;;;;4956319;28;20211;-75
2022/03/31 07:13:36;;;;;;;24.00;15.70;;;6.40;99.90;;;;;;4956747;29;20235;-73
2022/03/31 07:16:03;;;;;;;29.20;17.07;;;6.50;99.90;;;;;;4962781;28;20404;-75
2022/03/31 07:18:28;;;;;;;26.37;17.37;;;6.60;99.90;;;;;;4957217;28;20513;-74
2022/03/31 07:20:54;;;;;;;25.63;17.23;;;6.60;99.90;;;;;;4956295;28;20448;-73
2022/03/31 07:23:23;;;;;;;26.00;16.60;;;6.70;99.90;;;;;;4956436;29;20738;-74
2022/03/31 07:25:49;;;;;;;25.73;17.43;;;6.70;99.90;;;;;;4956522;28;20175;-75
2022/03/31 07:28:15;;;;;;;25.43;18.63;;;6.80;99.90;;;;;;4954663;29;20442;-75
2022/03/31 07:30:41;;;;;;;24.73;17.13;;;6.70;99.90;;;;;;4937933;28;21140;-74
2022/03/31 07:33:08;;;;;;;24.07;16.70;;;6.80;99.90;;;;;;4936886;29;20234;-74
2022/03/31 07:35:37;;;;;;;26.30;16.83;;;6.90;99.90;;;;;;4937351;29;20211;-75
2022/03/31 07:38:04;;;;;;;23.53;16.77;;;7.00;99.90;;;;;;4936790;29;20441;-74
2022/03/31 07:40:31;;;;;;;29.70;17.13;;;7.00;99.90;;;;;;4936983;29;20411;-73
2022/03/31 07:42:57;;;;;;;26.17;17.27;;;7.00;99.90;;;;;;4936841;29;20457;-73
2022/03/31 07:45:23;;;;;;;25.33;17.10;;;7.00;99.90;;;;;;4937081;29;20970;-74
2022/03/31 07:47:49;;;;;;;26.67;16.33;;;7.00;99.90;;;;;;4936908;29;20415;-75
2022/03/31 07:50:17;;;;;;;21.67;15.77;;;7.10;99.90;;;;;;4936804;29;20421;-73
2022/03/31 07:52:43;;;;;;;28.67;15.90;;;7.10;99.90;;;;;;4936636;29;20233;-73
2022/03/31 07:55:10;;;;;;;25.73;17.80;;;7.20;99.90;;;;;;4936784;29;20927;-73
2022/03/31 07:57:37;;;;;;;26.90;17.33;;;7.10;99.90;;;;;;4935143;29;20469;-73
2022/03/31 08:00:08;;;;;;;24.27;17.00;;;7.10;99.90;;;;;;4936581;29;20420;-73
2022/03/31 08:02:34;;;;;;;30.00;18.80;;;7.20;99.90;;;;;;4936414;29;20480;-74
2022/03/31 08:04:59;;;;;;;28.03;18.50;;;7.30;99.90;;;;;;4935160;29;20474;-73
2022/03/31 08:07:25;;;;;;;27.50;18.03;;;7.30;99.90;;;;;;4936562;29;20183;-73
2022/03/31 08:09:50;;;;;;;28.20;17.57;;;7.40;99.90;;;;;;4936537;29;20258;-73
2022/03/31 08:12:17;;;;;;;28.13;17.33;;;7.40;99.90;;;;;;4936419;29;20199;-74
2022/03/31 08:14:43;;;;;;;22.50;16.10;;;7.40;99.90;;;;;;4936796;29;20219;-75
2022/03/31 08:17:08;;;;;;;29.27;19.70;;;7.50;99.90;;;;;;4936087;29;20788;-75
2022/03/31 08:19:34;;;;;;;25.73;16.43;;;7.50;99.90;;;;;;4936395;29;20252;-74
2022/03/31 08:22:01;;;;;;;32.00;18.80;;;7.50;99.90;;;;;;4936454;29;20275;-74
2022/03/31 08:24:27;;;;;;;30.83;19.90;;;7.50;99.90;;;;;;4936295;29;20182;-74
2022/03/31 08:26:53;;;;;;;30.97;19.60;;;7.30;99.90;;;;;;4936259;29;20420;-75
2022/03/31 08:29:19;;;;;;;26.10;18.70;;;7.30;99.90;;;;;;4936006;29;20417;-74
2022/03/31 08:31:45;;;;;;;29.20;18.80;;;7.30;99.90;;;;;;4935585;29;20218;-74
2022/03/31 08:34:10;;;;;;;28.27;17.67;;;7.40;99.90;;;;;;4935874;29;20291;-74
2022/03/31 08:36:36;;;;;;;27.80;18.10;;;7.50;99.90;;;;;;4935963;29;20511;-74
2022/03/31 08:39:04;;;;;;;25.73;18.27;;;7.50;99.90;;;;;;4935777;29;20177;-74
2022/03/31 08:41:29;;;;;;;30.97;19.73;;;7.50;99.90;;;;;;4935125;29;20469;-73
2022/03/31 08:43:56;;;;;;;28.43;18.90;;;7.60;99.90;;;;;;4935869;29;20453;-75
2022/03/31 08:46:23;;;;;;;30.87;18.63;;;7.60;99.90;;;;;;4935725;29;20184;-74
2022/03/31 08:48:49;;;;;;;27.60;19.37;;;7.60;99.90;;;;;;4935811;29;20998;-74
2022/03/31 08:51:15;;;;;;;31.10;19.93;;;7.60;99.90;;;;;;4935376;29;20460;-74
2022/03/31 08:53:41;;;;;;;28.77;19.47;;;7.60;99.90;;;;;;4935606;29;20424;-74
2022/03/31 08:56:09;;;;;;;27.13;19.23;;;7.70;99.90;;;;;;4935587;29;20471;-74
2022/03/31 08:58:35;;;;;;;32.23;19.20;;;7.80;99.90;;;;;;4935758;29;20649;-74
2022/03/31 09:01:01;;;;;;;31.30;19.10;;;7.90;99.90;;;;;;4935195;29;20443;-73
2022/03/31 09:03:38;;;;;;;28.17;18.77;;;8.10;99.90;;;;;;4935455;29;20199;-73
2022/03/31 09:06:10;;;;;;;35.30;21.37;;;8.20;99.90;;;;;;4935536;29;20213;-74
2022/03/31 09:08:35;;;;;;;30.17;20.40;;;8.30;99.90;;;;;;4935302;29;20419;-73
2022/03/31 09:11:03;;;;;;;32.37;21.53;;;8.40;99.90;;;;;;4935011;29;20786;-74
2022/03/31 09:13:37;;;;;;;29.50;20.77;;;8.60;99.90;;;;;;4935090;29;20181;-73
2022/03/31 09:16:06;;;;;;;28.33;19.17;;;8.90;99.90;;;;;;4935184;29;20417;-73
2022/03/31 09:18:34;;;;;;;30.43;20.37;;;9.00;99.90;;;;;;4935257;29;20422;-74
2022/03/31 09:21:02;;;;;;;31.73;20.90;;;9.10;99.90;;;;;;4934835;29;20443;-74
2022/03/31 09:23:31;;;;;;;31.60;20.83;;;9.00;99.90;;;;;;4935169;29;20416;-74
2022/03/31 09:26:09;;;;;;;30.80;17.67;;;8.80;99.90;;;;;;4935074;29;20449;-74
2022/03/31 09:28:39;;;;;;;29.70;19.10;;;8.80;99.90;;;;;;4934840;29;20519;-74
2022/03/31 09:31:08;;;;;;;32.27;19.80;;;8.80;99.90;;;;;;4934096;29;20460;-74
2022/03/31 09:33:49;;;;;;;30.00;20.30;;;8.70;99.90;;;;;;4935050;29;20413;-73
2022/03/31 09:36:18;;;;;;;29.20;20.23;;;8.70;99.90;;;;;;4937941;29;20419;-74
2022/03/31 09:39:05;;;;;;;29.30;19.60;;;8.70;99.90;;;;;;4940072;29;20415;-74
2022/03/31 09:41:39;;;;;;;32.53;20.00;;;8.80;99.90;;;;;;4935531;29;20806;-74
2022/03/31 09:44:15;;;;;;;30.30;20.60;;;9.00;99.90;;;;;;4934937;29;20582;-74
2022/03/31 09:46:42;;;;;;;36.93;21.27;;;9.30;99.90;;;;;;4936808;29;20422;-75
2022/03/31 09:49:36;;;;;;;31.50;20.70;;;9.60;99.90;;;;;;4940502;29;20460;-74
2022/03/31 09:52:07;;;;;;;34.17;22.07;;;9.90;99.90;;;;;;4925788;29;20976;-74
2022/03/31 09:54:34;;;;;;;41.90;23.90;;;10.20;99.90;;;;;;4934673;29;20464;-74
2022/03/31 09:57:03;;;;;;;33.13;20.40;;;10.50;99.90;;;;;;4934361;29;20448;-74
2022/03/31 09:59:31;;;;;;;29.37;21.47;;;10.80;99.90;;;;;;4934659;29;20503;-75
2022/03/31 10:01:56;;;;;;;29.73;21.43;;;11.10;99.90;;;;;;4934261;29;20512;-73
2022/03/31 10:04:22;;;;;;;29.50;21.40;;;11.40;99.90;;;;;;4934389;29;20458;-72
2022/03/31 10:06:49;;;;;;;31.27;22.53;;;12.20;99.90;;;;;;4934589;29;20213;-73
2022/03/31 10:09:15;;;;;;;27.67;20.30;;;13.00;99.90;;;;;;4934178;29;20196;-72
2022/03/31 10:11:43;;;;;;;28.30;19.63;;;13.80;99.90;;;;;;4934257;29;20438;-73
2022/03/31 10:14:27;;;;;;;27.27;19.63;;;13.80;99.90;;;;;;4934234;29;20227;-73
2022/03/31 10:17:01;;;;;;;27.93;19.20;;;13.50;99.90;;;;;;4934571;29;20854;-73
2022/03/31 10:19:35;;;;;;;28.00;19.70;;;12.80;99.90;;;;;;4934286;29;20409;-73
2022/03/31 10:22:08;;;;;;;27.30;18.27;;;12.30;99.90;;;;;;4934128;29;20441;-73
2022/03/31 10:24:46;;;;;;;25.67;18.43;;;11.50;99.90;;;;;;4934242;29;20424;-73
2022/03/31 10:27:31;;;;;;;27.30;19.60;;;11.50;99.90;;;;;;4934164;29;20443;-73
2022/03/31 10:30:22;;;;;;;25.10;17.73;;;11.20;99.90;;;;;;4934011;29;20425;-74
2022/03/31 10:33:01;;;;;;;34.20;21.60;;;11.20;99.90;;;;;;4933507;29;20550;-74
2022/03/31 10:35:34;;;;;;;30.00;21.40;;;10.70;99.90;;;;;;4933994;29;20512;-74
2022/03/31 10:38:17;;;;;;;29.13;20.00;;;10.70;99.90;;;;;;4933648;29;20422;-74
2022/03/31 10:40:45;;;;;;;27.00;18.93;;;10.60;99.90;;;;;;4933796;28;20416;-74
2022/03/31 10:43:28;;;;;;;25.80;18.20;;;10.70;99.90;;;;;;4937839;29;20926;-73
2022/03/31 10:45:55;;;;;;;28.10;20.47;;;10.70;99.90;;;;;;4937926;29;20507;-74
2022/03/31 10:48:24;;;;;;;27.43;18.50;;;10.70;99.90;;;;;;4937903;29;20445;-74
2022/03/31 10:51:02;;;;;;;27.93;19.00;;;10.60;99.90;;;;;;4938081;29;20420;-74
2022/03/31 10:53:30;;;;;;;23.23;18.17;;;10.40;99.90;;;;;;4937903;29;20781;-74
2022/03/31 10:55:56;;;;;;;26.40;19.00;;;10.70;99.90;;;;;;4937879;29;20425;-73
2022/03/31 10:58:30;;;;;;;29.60;18.20;;;10.70;99.90;;;;;;4937531;29;20480;-73
2022/03/31 11:01:01;;;;;;;27.83;19.33;;;10.80;99.90;;;;;;4937446;29;20511;-74
2022/03/31 11:03:27;;;;;;;26.77;17.67;;;10.90;99.90;;;;;;4937573;29;20444;-74
2022/03/31 11:05:56;;;;;;;27.67;19.67;;;10.90;99.90;;;;;;4937710;29;20928;-73
2022/03/31 11:08:22;;;;;;;22.87;17.60;;;10.90;99.90;;;;;;4956291;28;20403;-74
2022/03/31 11:10:53;;;;;;;26.37;17.13;;;11.00;99.90;;;;;;4975916;28;21153;-73
2022/03/31 11:13:29;;;;;;;27.27;19.00;;;11.00;99.90;;;;;;4975780;28;20415;-73
2022/03/31 11:15:56;;;;;;;30.83;17.57;;;11.00;99.90;;;;;;4976067;28;20463;-74
2022/03/31 11:18:23;;;;;;;26.43;17.97;;;11.00;99.90;;;;;;4975764;28;20418;-75
2022/03/31 11:21:01;;;;;;;28.97;19.20;;;11.00;99.90;;;;;;4975674;28;20510;-74
2022/03/31 11:23:29;;;;;;;26.17;18.23;;;11.00;99.90;;;;;;4974397;28;20431;-75
2022/03/31 11:25:55;;;;;;;28.03;18.37;;;10.90;99.90;;;;;;4975881;28;20554;-75
2022/03/31 11:28:21;;;;;;;27.67;18.80;;;10.90;99.90;;;;;;4975814;28;20915;-74
2022/03/31 11:30:48;;;;;;;30.90;18.97;;;10.80;99.90;;;;;;4975344;28;20500;-73
2022/03/31 11:33:14;;;;;;;28.50;18.40;;;10.60;99.90;;;;;;4975784;28;20422;-74
2022/03/31 11:35:41;;;;;;;27.50;20.07;;;10.60;99.90;;;;;;4975579;28;20466;-74
2022/03/31 11:38:17;;;;;;;30.60;17.80;;;10.70;99.90;;;;;;4975354;28;20919;-73
2022/03/31 11:40:45;;;;;;;28.47;18.30;;;10.70;99.90;;;;;;4973909;28;20517;-74
2022/03/31 11:43:14;;;;;;;31.13;19.33;;;10.80;99.90;;;;;;4975468;28;20423;-74
2022/03/31 11:45:44;;;;;;;26.80;18.47;;;10.70;99.90;;;;;;4975542;28;20903;-74
2022/03/31 11:48:11;;;;;;;34.13;19.90;;;10.70;99.90;;;;;;4975394;28;20429;-73
2022/03/31 11:50:39;;;;;;;26.23;19.30;;;10.90;99.90;;;;;;4975280;28;20416;-74
2022/03/31 11:53:24;;;;;;;29.70;19.80;;;10.80;99.90;;;;;;4974581;28;20423;-73
2022/03/31 11:55:55;;;;;;;30.40;19.27;;;10.70;99.90;;;;;;4975399;28;20838;-74
2022/03/31 11:58:21;;;;;;;27.30;17.50;;;10.70;99.90;;;;;;4975191;28;20418;-74
2022/03/31 12:00:50;;;;;;;32.37;18.60;;;10.80;99.90;;;;;;4975105;28;20411;-74
2022/03/31 12:03:19;;;;;;;24.83;17.47;;;10.90;99.90;;;;;;4978671;28;20187;-75
2022/03/31 12:05:59;;;;;;;31.87;18.70;;;10.90;99.90;;;;;;4978972;28;20415;-74
2022/03/31 12:08:26;;;;;;;27.73;18.70;;;11.00;99.90;;;;;;4974854;28;20429;-73
2022/03/31 12:10:52;;;;;;;27.13;17.77;;;11.10;99.90;;;;;;4943259;28;20961;-74
2022/03/31 12:13:20;;;;;;;27.03;18.10;;;11.10;99.90;;;;;;4938375;29;20409;-74
2022/03/31 12:15:45;;;;;;;24.40;17.07;;;11.00;99.90;;;;;;4960511;28;20459;-73
2022/03/31 12:18:17;;;;;;;24.77;18.53;;;10.90;99.90;;;;;;4956573;28;20424;-74
2022/03/31 12:20:44;;;;;;;23.33;18.03;;;10.90;99.90;;;;;;4955402;28;20172;-73
2022/03/31 12:23:44;;;;;;;29.27;18.40;;;10.90;99.90;;;;;;4954027;29;20414;-73
2022/03/31 12:26:20;;;;;;;27.37;17.47;;;11.00;99.90;;;;;;4955417;28;20412;-75
2022/03/31 12:28:47;;;;;;;28.03;17.17;;;11.10;99.90;;;;;;4954103;29;20953;-75
2022/03/31 12:31:27;;;;;;;27.40;17.97;;;11.10;99.90;;;;;;4954941;28;20452;-75
2022/03/31 12:33:53;;;;;;;24.70;18.70;;;11.20;99.90;;;;;;4955193;28;20420;-75
2022/03/31 12:36:24;;;;;;;24.20;17.10;;;11.20;99.90;;;;;;4954002;28;20432;-75
2022/03/31 12:38:52;;;;;;;22.03;15.97;;;11.10;99.90;;;;;;4955571;28;20412;-74
2022/03/31 12:41:25;;;;;;;28.13;17.43;;;11.00;99.90;;;;;;4954851;28;20439;-75
2022/03/31 12:44:15;;;;;;;28.83;17.60;;;11.00;99.90;;;;;;4951907;28;20431;-74
2022/03/31 12:46:51;;;;;;;30.47;16.80;;;10.90;99.90;;;;;;4953535;29;20452;-76
2022/03/31 12:49:19;;;;;;;26.40;18.17;;;10.90;99.90;;;;;;4953897;29;20429;-74
2022/03/31 12:51:46;;;;;;;28.77;17.03;;;10.70;99.90;;;;;;4954551;28;20955;-74
2022/03/31 12:54:21;;;;;;;25.60;17.80;;;10.70;99.90;;;;;;4953273;29;20471;-73
2022/03/31 12:56:48;;;;;;;30.43;18.73;;;10.60;99.90;;;;;;4954674;28;20416;-73
2022/03/31 12:59:18;;;;;;;26.17;19.10;;;10.50;99.90;;;;;;4954496;28;20415;-75
2022/03/31 13:01:55;;;;;;;31.80;18.87;;;10.50;99.90;;;;;;4960494;28;20846;-75
2022/03/31 13:04:20;;;;;;;29.60;19.87;;;10.40;99.90;;;;;;4972824;28;20990;-75
2022/03/31 13:06:46;;;;;;;30.10;18.00;;;10.40;99.90;;;;;;4973826;28;20420;-75
2022/03/31 13:09:12;;;;;;;27.43;16.93;;;10.30;99.90;;;;;;4973737;28;20188;-73
2022/03/31 13:11:39;;;;;;;23.60;16.90;;;10.30;99.90;;;;;;4973847;28;20261;-73
2022/03/31 13:14:05;;;;;;;30.27;18.53;;;10.30;99.90;;;;;;4973650;28;20206;-73
2022/03/31 13:16:30;;;;;;;27.77;18.50;;;10.30;99.90;;;;;;4973679;28;20913;-73
2022/03/31 13:18:56;;;;;;;29.00;18.90;;;10.30;99.90;;;;;;4973477;28;20177;-74
2022/03/31 13:21:23;;;;;;;23.83;16.97;;;10.30;99.90;;;;;;4971657;28;20210;-74
2022/03/31 13:23:48;;;;;;;23.43;16.90;;;10.40;99.90;;;;;;4973173;28;20172;-74
2022/03/31 13:26:14;;;;;;;23.10;16.67;;;10.40;99.90;;;;;;4972443;28;20482;-74
2022/03/31 13:28:40;;;;;;;26.20;17.47;;;10.40;99.90;;;;;;4971895;28;20178;-74
2022/03/31 13:31:06;;;;;;;26.43;18.10;;;10.50;99.90;;;;;;4972565;28;20266;-74
2022/03/31 13:33:31;;;;;;;27.30;17.10;;;10.40;99.90;;;;;;4973068;28;21042;-74
2022/03/31 13:35:57;;;;;;;27.03;17.50;;;10.40;99.90;;;;;;4973432;28;20315;-74
2022/03/31 13:38:22;;;;;;;24.93;17.30;;;10.50;99.90;;;;;;4973853;28;20230;-74
2022/03/31 13:40:48;;;;;;;27.97;19.30;;;10.60;99.90;;;;;;4973571;28;20235;-73
2022/03/31 13:43:14;;;;;;;27.70;17.93;;;10.70;99.90;;;;;;4973116;28;20172;-74
2022/03/31 13:45:40;;;;;;;28.73;17.50;;;10.60;99.90;;;;;;4973233;28;20720;-73
2022/03/31 13:48:05;;;;;;;28.50;18.83;;;10.50;99.90;;;;;;4972884;28;20542;-74
2022/03/31 13:50:31;;;;;;;27.93;18.60;;;10.40;99.90;;;;;;4971481;28;20514;-74
2022/03/31 13:55:40;;;;;;;29.60;19.23;;;10.30;99.90;;;;;;4972916;28;20316;-74
2022/03/31 14:01:10;;;;;;;31.70;19.90;;;10.20;99.90;;;;;;4972782;28;20179;-73
2022/03/31 14:03:43;;;;;;;35.70;21.53;;;10.20;99.90;;;;;;4972975;28;20419;-74
2022/03/31 14:06:09;;;;;;;34.87;18.63;;;10.00;99.90;;;;;;4972583;28;20971;-74
2022/03/31 14:08:36;;;;;;;27.17;18.37;;;9.90;99.90;;;;;;4972863;28;20415;-73
2022/03/31 14:11:04;;;;;;;24.33;18.53;;;9.90;99.90;;;;;;4972401;28;20429;-73
2022/03/31 14:13:31;;;;;;;31.27;19.00;;;9.90;99.90;;;;;;4972650;28;20418;-74
2022/03/31 14:15:57;;;;;;;32.87;21.50;;;9.90;99.90;;;;;;4971152;28;20469;-74